sensor_id;sensor_type;location;lat;lon;timestamp;temperature;humidity
21580;DHT22;10951;59.656;9.666;2023-11-19T00:00:32;-7.80;99.90
21580;DHT22;10951;59.656;9.666;2023-11-19T00:02:59;-7.70;99.90
21580;DHT22;10951;59.656;9.666;2023-11-19T00:05:26;-7.70;99.90
21580;DHT22;10951;59.656;9.666;2023-11-19T00:07:54;-7.70;99.90
21580;DHT22;10951;59.656;9.666;2023-11-19T00:10:22;-7.70;99.90
21580;DHT22;10951;59.656;9.666;2023-11-19T00:12:49;-7.70;99.90
21580;DHT22;10951;59.656;9.666;2023-11-19T00:15:17;-7.70;99.90
21580;DHT22;10951;59.656;9.666;2023-11-19T00:17:47;-7.60;99.90
21580;DHT22;10951;59.656;9.666;2023-11-19T00:20:17;-7.60;99.90
21580;DHT22;10951;59.656;9.666;2023-11-19T00:22:45;-7.60;99.90
21580;DHT22;10951;59.656;9.666;2023-11-19T00:25:17;-7.60;99.90
21580;DHT22;10951;59.656;9.666;2023-11-19T00:27:45;-7.60;99.90
21580;DHT22;10951;59.656;9.666;2023-11-19T00:30:12;-7.70;99.90
21580;DHT22;10951;59.656;9.666;2023-11-19T00:32:41;-7.70;99.90
21580;DHT22;10951;59.656;9.666;2023-11-19T00:35:08;-7.60;99.90
21580;DHT22;10951;59.656;9.666;2023-11-19T00:37:37;-7.70;99.90
21580;DHT22;10951;59.656;9.666;2023-11-19T00:40:05;-7.60;99.90
21580;DHT22;10951;59.656;9.666;2023-11-19T00:42:33;-7.60;99.90
21580;DHT22;10951;59.656;9.666;2023-11-19T00:45:00;-7.50;99.90
21580;DHT22;10951;59.656;9.666;2023-11-19T00:47:28;-7.50;99.90
21580;DHT22;10951;59.656;9.666;2023-11-19T00:49:55;-7.40;99.90
21580;DHT22;10951;59.656;9.666;2023-11-19T00:52:22;-7.40;99.90
21580;DHT22;10951;59.656;9.666;2023-11-19T00:54:49;-7.40;99.90
21580;DHT22;10951;59.656;9.666;2023-11-19T00:57:17;-7.40;99.90
21580;DHT22;10951;59.656;9.666;2023-11-19T00:59:43;-7.40;99.90
21580;DHT22;10951;59.656;9.666;2023-11-19T01:02:11;-7.40;99.90
21580;DHT22;10951;59.656;9.666;2023-11-19T01:04:38;-7.30;99.90
21580;DHT22;10951;59.656;9.666;2023-11-19T01:07:05;-7.30;99.90
21580;DHT22;10951;59.656;9.666;2023-11-19T01:09:33;-7.30;99.90
21580;DHT22;10951;59.656;9.666;2023-11-19T01:12:02;-7.30;99.90
21580;DHT22;10951;59.656;9.666;2023-11-19T01:14:30;-7.30;99.90
21580;DHT22;10951;59.656;9.666;2023-11-19T01:16:57;-7.30;99.90
21580;DHT22;10951;59.656;9.666;2023-11-19T01:19:24;-7.20;99.90
21580;DHT22;10951;59.656;9.666;2023-11-19T01:21:51;-7.20;99.90
21580;DHT22;10951;59.656;9.666;2023-11-19T01:24:19;-7.20;99.90
21580;DHT22;10951;59.656;9.666;2023-11-19T01:26:46;-7.20;99.90
21580;DHT22;10951;59.656;9.666;2023-11-19T01:29:14;-7.30;99.90
21580;DHT22;10951;59.656;9.666;2023-11-19T01:31:46;-7.40;99.90
21580;DHT22;10951;59.656;9.666;2023-11-19T01:34:18;-7.40;99.90
21580;DHT22;10951;59.656;9.666;2023-11-19T01:36:47;-7.40;99.90
21580;DHT22;10951;59.656;9.666;2023-11-19T01:39:16;-7.40;99.90
21580;DHT22;10951;59.656;9.666;2023-11-19T01:41:43;-7.40;99.90
21580;DHT22;10951;59.656;9.666;2023-11-19T01:44:10;-7.40;99.90
21580;DHT22;10951;59.656;9.666;2023-11-19T01:46:44;-7.30;99.90
21580;DHT22;10951;59.656;9.666;2023-11-19T01:49:14;-7.20;99.90
21580;DHT22;10951;59.656;9.666;2023-11-19T01:51:41;-7.30;99.90
21580;DHT22;10951;59.656;9.666;2023-11-19T01:54:08;-7.30;99.90
21580;DHT22;10951;59.656;9.666;2023-11-19T01:56:37;-7.30;99.90
21580;DHT22;10951;59.656;9.666;2023-11-19T01:59:05;-7.20;99.90
21580;DHT22;10951;59.656;9.666;2023-11-19T02:01:32;-7.30;99.90
21580;DHT22;10951;59.656;9.666;2023-11-19T02:04:03;-7.30;99.90
21580;DHT22;10951;59.656;9.666;2023-11-19T02:06:33;-7.30;99.90
21580;DHT22;10951;59.656;9.666;2023-11-19T02:09:01;-7.30;99.90
21580;DHT22;10951;59.656;9.666;2023-11-19T02:11:28;-7.20;99.90
21580;DHT22;10951;59.656;9.666;2023-11-19T02:13:57;-7.20;99.90
21580;DHT22;10951;59.656;9.666;2023-11-19T02:16:23;-7.30;99.90
21580;DHT22;10951;59.656;9.666;2023-11-19T02:18:51;-7.30;99.90
21580;DHT22;10951;59.656;9.666;2023-11-19T02:21:18;-7.30;99.90
21580;DHT22;10951;59.656;9.666;2023-11-19T02:23:45;-7.30;99.90
21580;DHT22;10951;59.656;9.666;2023-11-19T02:26:26;-7.30;99.90
21580;DHT22;10951;59.656;9.666;2023-11-19T02:28:55;-7.30;99.70
21580;DHT22;10951;59.656;9.666;2023-11-19T02:31:22;-7.40;99.80
21580;DHT22;10951;59.656;9.666;2023-11-19T02:33:49;-7.30;99.80
21580;DHT22;10951;59.656;9.666;2023-11-19T02:36:17;-7.30;99.70
21580;DHT22;10951;59.656;9.666;2023-11-19T02:38:44;-7.40;99.80
21580;DHT22;10951;59.656;9.666;2023-11-19T02:41:11;-7.30;99.90
21580;DHT22;10951;59.656;9.666;2023-11-19T02:43:38;-7.30;99.70
21580;DHT22;10951;59.656;9.666;2023-11-19T02:46:06;-7.30;99.70
21580;DHT22;10951;59.656;9.666;2023-11-19T02:48:38;-7.30;99.70
21580;DHT22;10951;59.656;9.666;2023-11-19T02:51:05;-7.40;99.90
21580;DHT22;10951;59.656;9.666;2023-11-19T02:53:37;-7.40;99.90
21580;DHT22;10951;59.656;9.666;2023-11-19T02:56:06;-7.50;99.90
21580;DHT22;10951;59.656;9.666;2023-11-19T02:58:39;-7.40;99.90
21580;DHT22;10951;59.656;9.666;2023-11-19T03:01:06;-7.40;99.90
21580;DHT22;10951;59.656;9.666;2023-11-19T03:03:51;-7.30;99.90
21580;DHT22;10951;59.656;9.666;2023-11-19T03:06:24;-7.30;99.90
21580;DHT22;10951;59.656;9.666;2023-11-19T03:08:51;-7.20;99.90
21580;DHT22;10951;59.656;9.666;2023-11-19T03:11:18;-7.20;99.90
21580;DHT22;10951;59.656;9.666;2023-11-19T03:13:45;-7.20;99.90
21580;DHT22;10951;59.656;9.666;2023-11-19T03:16:13;-7.30;99.90
21580;DHT22;10951;59.656;9.666;2023-11-19T03:18:41;-7.30;99.90
21580;DHT22;10951;59.656;9.666;2023-11-19T03:21:08;-7.30;99.90
21580;DHT22;10951;59.656;9.666;2023-11-19T03:23:35;-7.30;99.90
21580;DHT22;10951;59.656;9.666;2023-11-19T03:26:03;-7.30;99.90
21580;DHT22;10951;59.656;9.666;2023-11-19T03:28:32;-7.20;99.90
21580;DHT22;10951;59.656;9.666;2023-11-19T03:31:00;-7.10;99.90
21580;DHT22;10951;59.656;9.666;2023-11-19T03:33:27;-7.10;99.90
21580;DHT22;10951;59.656;9.666;2023-11-19T03:35:56;-7.00;99.90
21580;DHT22;10951;59.656;9.666;2023-11-19T03:38:24;-7.00;99.90
21580;DHT22;10951;59.656;9.666;2023-11-19T03:40:51;-7.00;99.90
21580;DHT22;10951;59.656;9.666;2023-11-19T03:43:18;-7.00;99.90
21580;DHT22;10951;59.656;9.666;2023-11-19T03:45:48;-7.00;99.90
21580;DHT22;10951;59.656;9.666;2023-11-19T03:48:16;-7.00;99.90
21580;DHT22;10951;59.656;9.666;2023-11-19T03:50:43;-7.10;99.90
21580;DHT22;10951;59.656;9.666;2023-11-19T03:53:12;-7.10;99.90
21580;DHT22;10951;59.656;9.666;2023-11-19T03:55:39;-7.00;99.90
21580;DHT22;10951;59.656;9.666;2023-11-19T03:58:06;-7.00;99.90
21580;DHT22;10951;59.656;9.666;2023-11-19T04:00:33;-7.00;99.90
21580;DHT22;10951;59.656;9.666;2023-11-19T04:03:00;-6.90;99.90
21580;DHT22;10951;59.656;9.666;2023-11-19T04:05:27;-7.00;99.90
21580;DHT22;10951;59.656;9.666;2023-11-19T04:07:54;-6.90;99.90
21580;DHT22;10951;59.656;9.666;2023-11-19T04:10:21;-6.90;99.90
21580;DHT22;10951;59.656;9.666;2023-11-19T04:12:50;-7.00;99.90
21580;DHT22;10951;59.656;9.666;2023-11-19T04:15:17;-7.00;99.90
21580;DHT22;10951;59.656;9.666;2023-11-19T04:17:44;-7.00;99.90
21580;DHT22;10951;59.656;9.666;2023-11-19T04:20:11;-7.00;99.90
21580;DHT22;10951;59.656;9.666;2023-11-19T04:22:41;-7.00;99.90
21580;DHT22;10951;59.656;9.666;2023-11-19T04:25:08;-7.00;99.90
21580;DHT22;10951;59.656;9.666;2023-11-19T04:27:36;-7.00;99.90
21580;DHT22;10951;59.656;9.666;2023-11-19T04:30:03;-7.10;99.90
21580;DHT22;10951;59.656;9.666;2023-11-19T04:32:31;-7.10;99.90
21580;DHT22;10951;59.656;9.666;2023-11-19T04:34:58;-7.10;99.90
21580;DHT22;10951;59.656;9.666;2023-11-19T04:37:25;-7.00;99.90
21580;DHT22;10951;59.656;9.666;2023-11-19T04:39:52;-7.00;99.90
21580;DHT22;10951;59.656;9.666;2023-11-19T04:42:22;-6.90;99.90
21580;DHT22;10951;59.656;9.666;2023-11-19T04:44:50;-6.90;99.90
21580;DHT22;10951;59.656;9.666;2023-11-19T04:47:17;-6.90;99.90
21580;DHT22;10951;59.656;9.666;2023-11-19T04:49:44;-6.90;99.90
21580;DHT22;10951;59.656;9.666;2023-11-19T04:52:11;-6.80;99.90
21580;DHT22;10951;59.656;9.666;2023-11-19T04:54:42;-6.80;99.90
21580;DHT22;10951;59.656;9.666;2023-11-19T04:57:10;-6.80;99.90
21580;DHT22;10951;59.656;9.666;2023-11-19T04:59:40;-6.90;99.90
21580;DHT22;10951;59.656;9.666;2023-11-19T05:02:09;-6.90;99.90
21580;DHT22;10951;59.656;9.666;2023-11-19T05:04:36;-7.00;99.90
21580;DHT22;10951;59.656;9.666;2023-11-19T05:07:04;-6.90;99.90
21580;DHT22;10951;59.656;9.666;2023-11-19T05:09:32;-6.80;99.90
21580;DHT22;10951;59.656;9.666;2023-11-19T05:11:59;-6.70;99.90
21580;DHT22;10951;59.656;9.666;2023-11-19T05:14:26;-6.70;99.90
21580;DHT22;10951;59.656;9.666;2023-11-19T05:16:53;-6.70;99.90
21580;DHT22;10951;59.656;9.666;2023-11-19T05:19:20;-6.70;99.90
21580;DHT22;10951;59.656;9.666;2023-11-19T05:21:47;-6.60;99.90
21580;DHT22;10951;59.656;9.666;2023-11-19T05:24:14;-6.60;99.90
21580;DHT22;10951;59.656;9.666;2023-11-19T05:26:41;-6.60;99.90
21580;DHT22;10951;59.656;9.666;2023-11-19T05:29:08;-6.70;99.90
21580;DHT22;10951;59.656;9.666;2023-11-19T05:31:35;-6.60;99.90
21580;DHT22;10951;59.656;9.666;2023-11-19T05:34:04;-6.70;99.90
21580;DHT22;10951;59.656;9.666;2023-11-19T05:36:31;-6.70;99.90
21580;DHT22;10951;59.656;9.666;2023-11-19T05:38:59;-6.70;99.90
21580;DHT22;10951;59.656;9.666;2023-11-19T05:41:26;-6.80;99.90
21580;DHT22;10951;59.656;9.666;2023-11-19T05:43:54;-6.70;99.90
21580;DHT22;10951;59.656;9.666;2023-11-19T05:46:21;-6.70;99.90
21580;DHT22;10951;59.656;9.666;2023-11-19T05:48:49;-6.70;99.90
21580;DHT22;10951;59.656;9.666;2023-11-19T05:51:16;-6.70;99.90
21580;DHT22;10951;59.656;9.666;2023-11-19T05:53:44;-6.60;99.90
21580;DHT22;10951;59.656;9.666;2023-11-19T05:56:13;-6.60;99.90
21580;DHT22;10951;59.656;9.666;2023-11-19T05:58:42;-6.60;99.90
21580;DHT22;10951;59.656;9.666;2023-11-19T06:01:12;-6.60;99.90
21580;DHT22;10951;59.656;9.666;2023-11-19T06:03:39;-6.60;99.90
21580;DHT22;10951;59.656;9.666;2023-11-19T06:06:06;-6.70;99.90
21580;DHT22;10951;59.656;9.666;2023-11-19T06:08:33;-6.70;99.90
21580;DHT22;10951;59.656;9.666;2023-11-19T06:11:00;-6.70;99.90
21580;DHT22;10951;59.656;9.666;2023-11-19T06:13:28;-6.70;99.90
21580;DHT22;10951;59.656;9.666;2023-11-19T06:15:58;-6.70;99.90
21580;DHT22;10951;59.656;9.666;2023-11-19T06:18:25;-6.70;99.90
21580;DHT22;10951;59.656;9.666;2023-11-19T06:20:52;-6.70;99.90
21580;DHT22;10951;59.656;9.666;2023-11-19T06:23:19;-6.70;99.90
21580;DHT22;10951;59.656;9.666;2023-11-19T06:25:46;-6.60;99.90
21580;DHT22;10951;59.656;9.666;2023-11-19T06:28:14;-6.70;99.90
21580;DHT22;10951;59.656;9.666;2023-11-19T06:30:41;-6.70;99.90
21580;DHT22;10951;59.656;9.666;2023-11-19T06:33:12;-6.70;99.90
21580;DHT22;10951;59.656;9.666;2023-11-19T06:35:39;-6.70;99.90
21580;DHT22;10951;59.656;9.666;2023-11-19T06:38:06;-6.60;99.90
21580;DHT22;10951;59.656;9.666;2023-11-19T06:40:34;-6.50;99.90
21580;DHT22;10951;59.656;9.666;2023-11-19T06:43:04;-6.50;99.90
21580;DHT22;10951;59.656;9.666;2023-11-19T06:45:32;-6.60;99.90
21580;DHT22;10951;59.656;9.666;2023-11-19T06:48:01;-6.50;99.90
21580;DHT22;10951;59.656;9.666;2023-11-19T06:50:30;-6.50;99.90
21580;DHT22;10951;59.656;9.666;2023-11-19T06:52:58;-6.40;99.90
21580;DHT22;10951;59.656;9.666;2023-11-19T06:55:25;-6.40;99.90
21580;DHT22;10951;59.656;9.666;2023-11-19T06:57:52;-6.40;99.90
21580;DHT22;10951;59.656;9.666;2023-11-19T07:00:19;-6.40;99.90
21580;DHT22;10951;59.656;9.666;2023-11-19T07:02:47;-6.40;99.90
21580;DHT22;10951;59.656;9.666;2023-11-19T07:05:14;-6.40;99.90
21580;DHT22;10951;59.656;9.666;2023-11-19T07:07:41;-6.40;99.90
21580;DHT22;10951;59.656;9.666;2023-11-19T07:10:08;-6.40;99.90
21580;DHT22;10951;59.656;9.666;2023-11-19T07:12:36;-6.40;99.90
21580;DHT22;10951;59.656;9.666;2023-11-19T07:15:04;-6.40;99.90
21580;DHT22;10951;59.656;9.666;2023-11-19T07:17:32;-6.40;99.90
21580;DHT22;10951;59.656;9.666;2023-11-19T07:19:59;-6.40;99.90
21580;DHT22;10951;59.656;9.666;2023-11-19T07:22:27;-6.40;99.90
21580;DHT22;10951;59.656;9.666;2023-11-19T07:24:56;-6.40;99.90
21580;DHT22;10951;59.656;9.666;2023-11-19T07:27:24;-6.50;99.90
21580;DHT22;10951;59.656;9.666;2023-11-19T07:29:51;-6.50;99.90
21580;DHT22;10951;59.656;9.666;2023-11-19T07:32:18;-6.40;99.90
21580;DHT22;10951;59.656;9.666;2023-11-19T07:34:45;-6.40;99.90
21580;DHT22;10951;59.656;9.666;2023-11-19T07:37:12;-6.40;99.90
21580;DHT22;10951;59.656;9.666;2023-11-19T07:39:39;-6.40;99.90
21580;DHT22;10951;59.656;9.666;2023-11-19T07:42:08;-6.40;99.90
21580;DHT22;10951;59.656;9.666;2023-11-19T07:44:36;-6.40;99.90
21580;DHT22;10951;59.656;9.666;2023-11-19T07:47:04;-6.40;99.90
21580;DHT22;10951;59.656;9.666;2023-11-19T07:49:31;-6.40;99.90
21580;DHT22;10951;59.656;9.666;2023-11-19T07:51:58;-6.40;99.90
21580;DHT22;10951;59.656;9.666;2023-11-19T07:54:26;-6.30;99.90
21580;DHT22;10951;59.656;9.666;2023-11-19T07:56:53;-6.30;99.90
21580;DHT22;10951;59.656;9.666;2023-11-19T07:59:20;-6.20;99.90
21580;DHT22;10951;59.656;9.666;2023-11-19T08:01:47;-6.20;99.90
21580;DHT22;10951;59.656;9.666;2023-11-19T08:04:15;-6.20;99.90
21580;DHT22;10951;59.656;9.666;2023-11-19T08:06:42;-6.10;99.90
21580;DHT22;10951;59.656;9.666;2023-11-19T08:09:09;-6.10;99.90
21580;DHT22;10951;59.656;9.666;2023-11-19T08:11:43;-6.10;99.90
21580;DHT22;10951;59.656;9.666;2023-11-19T08:14:11;-5.90;99.90
21580;DHT22;10951;59.656;9.666;2023-11-19T08:16:42;-5.90;99.90
21580;DHT22;10951;59.656;9.666;2023-11-19T08:19:09;-5.80;99.90
21580;DHT22;10951;59.656;9.666;2023-11-19T08:21:36;-5.80;99.90
21580;DHT22;10951;59.656;9.666;2023-11-19T08:24:03;-5.80;99.90
21580;DHT22;10951;59.656;9.666;2023-11-19T08:26:30;-5.80;99.90
21580;DHT22;10951;59.656;9.666;2023-11-19T08:28:57;-5.80;99.90
21580;DHT22;10951;59.656;9.666;2023-11-19T08:31:25;-5.80;99.90
21580;DHT22;10951;59.656;9.666;2023-11-19T08:33:52;-5.70;99.90
21580;DHT22;10951;59.656;9.666;2023-11-19T08:36:19;-5.70;99.90
21580;DHT22;10951;59.656;9.666;2023-11-19T08:38:46;-5.70;99.90
21580;DHT22;10951;59.656;9.666;2023-11-19T08:41:16;-5.70;99.90
21580;DHT22;10951;59.656;9.666;2023-11-19T08:43:45;-5.80;99.90
21580;DHT22;10951;59.656;9.666;2023-11-19T08:46:12;-5.90;99.90
21580;DHT22;10951;59.656;9.666;2023-11-19T08:48:40;-5.90;99.90
21580;DHT22;10951;59.656;9.666;2023-11-19T08:51:07;-5.90;99.90
21580;DHT22;10951;59.656;9.666;2023-11-19T08:53:34;-5.90;99.90
21580;DHT22;10951;59.656;9.666;2023-11-19T08:56:01;-5.90;99.90
21580;DHT22;10951;59.656;9.666;2023-11-19T08:58:30;-5.90;99.90
21580;DHT22;10951;59.656;9.666;2023-11-19T09:00:58;-5.90;99.90
21580;DHT22;10951;59.656;9.666;2023-11-19T09:03:25;-5.90;99.90
21580;DHT22;10951;59.656;9.666;2023-11-19T09:05:57;-5.90;99.90
21580;DHT22;10951;59.656;9.666;2023-11-19T09:08:24;-5.80;99.90
21580;DHT22;10951;59.656;9.666;2023-11-19T09:10:51;-5.80;99.90
21580;DHT22;10951;59.656;9.666;2023-11-19T09:13:18;-5.80;99.90
21580;DHT22;10951;59.656;9.666;2023-11-19T09:15:45;-5.80;99.90
21580;DHT22;10951;59.656;9.666;2023-11-19T09:18:12;-5.80;99.90
21580;DHT22;10951;59.656;9.666;2023-11-19T09:20:39;-5.80;99.90
21580;DHT22;10951;59.656;9.666;2023-11-19T09:23:07;-5.70;99.90
21580;DHT22;10951;59.656;9.666;2023-11-19T09:25:36;-5.70;99.90
21580;DHT22;10951;59.656;9.666;2023-11-19T09:28:06;-5.60;99.90
21580;DHT22;10951;59.656;9.666;2023-11-19T09:30:33;-5.60;99.90
21580;DHT22;10951;59.656;9.666;2023-11-19T09:33:01;-5.60;99.90
21580;DHT22;10951;59.656;9.666;2023-11-19T09:35:28;-5.50;99.90
21580;DHT22;10951;59.656;9.666;2023-11-19T09:37:55;-5.50;99.90
21580;DHT22;10951;59.656;9.666;2023-11-19T09:40:23;-5.50;99.90
21580;DHT22;10951;59.656;9.666;2023-11-19T09:42:50;-5.50;99.90
21580;DHT22;10951;59.656;9.666;2023-11-19T09:45:21;-5.50;99.90
21580;DHT22;10951;59.656;9.666;2023-11-19T09:47:51;-5.40;99.90
21580;DHT22;10951;59.656;9.666;2023-11-19T09:50:20;-5.40;99.90
21580;DHT22;10951;59.656;9.666;2023-11-19T09:52:47;-5.40;99.90
21580;DHT22;10951;59.656;9.666;2023-11-19T09:55:15;-5.40;99.90
21580;DHT22;10951;59.656;9.666;2023-11-19T09:57:42;-5.40;99.90
21580;DHT22;10951;59.656;9.666;2023-11-19T10:00:12;-5.40;99.90
21580;DHT22;10951;59.656;9.666;2023-11-19T10:02:43;-5.40;99.90
21580;DHT22;10951;59.656;9.666;2023-11-19T10:05:14;-5.40;99.90
21580;DHT22;10951;59.656;9.666;2023-11-19T10:07:42;-5.30;99.90
21580;DHT22;10951;59.656;9.666;2023-11-19T10:10:09;-5.30;99.90
21580;DHT22;10951;59.656;9.666;2023-11-19T10:12:41;-5.30;99.90
21580;DHT22;10951;59.656;9.666;2023-11-19T10:15:24;-5.20;99.90
21580;DHT22;10951;59.656;9.666;2023-11-19T10:17:57;-5.30;99.90
21580;DHT22;10951;59.656;9.666;2023-11-19T10:20:25;-5.20;99.90
21580;DHT22;10951;59.656;9.666;2023-11-19T10:22:53;-5.20;99.90
21580;DHT22;10951;59.656;9.666;2023-11-19T10:27:51;-5.20;99.90
21580;DHT22;10951;59.656;9.666;2023-11-19T10:30:21;-5.10;99.90
21580;DHT22;10951;59.656;9.666;2023-11-19T10:33:03;-5.10;99.90
21580;DHT22;10951;59.656;9.666;2023-11-19T10:35:35;-5.10;99.90
21580;DHT22;10951;59.656;9.666;2023-11-19T10:38:15;-5.10;99.90
21580;DHT22;10951;59.656;9.666;2023-11-19T10:40:43;-5.10;99.90
21580;DHT22;10951;59.656;9.666;2023-11-19T10:43:10;-5.10;99.90
21580;DHT22;10951;59.656;9.666;2023-11-19T10:45:39;-5.10;99.90
21580;DHT22;10951;59.656;9.666;2023-11-19T10:48:06;-5.10;99.90
21580;DHT22;10951;59.656;9.666;2023-11-19T10:50:38;-5.10;99.90
21580;DHT22;10951;59.656;9.666;2023-11-19T10:53:07;-5.20;99.90
21580;DHT22;10951;59.656;9.666;2023-11-19T10:55:37;-5.20;99.90
21580;DHT22;10951;59.656;9.666;2023-11-19T10:58:08;-5.20;99.90
21580;DHT22;10951;59.656;9.666;2023-11-19T11:00:45;-5.20;99.90
21580;DHT22;10951;59.656;9.666;2023-11-19T11:03:20;-5.20;99.90
21580;DHT22;10951;59.656;9.666;2023-11-19T11:05:49;-5.20;99.90
21580;DHT22;10951;59.656;9.666;2023-11-19T11:08:17;-5.20;99.90
21580;DHT22;10951;59.656;9.666;2023-11-19T11:10:57;-5.30;99.90
21580;DHT22;10951;59.656;9.666;2023-11-19T11:13:26;-5.30;99.90
21580;DHT22;10951;59.656;9.666;2023-11-19T11:15:57;-5.20;99.90
21580;DHT22;10951;59.656;9.666;2023-11-19T11:18:27;-5.20;99.90
21580;DHT22;10951;59.656;9.666;2023-11-19T11:21:02;-5.10;99.90
21580;DHT22;10951;59.656;9.666;2023-11-19T11:29:00;-5.10;99.90
21580;DHT22;10951;59.656;9.666;2023-11-19T11:37:59;-4.90;99.90
21580;DHT22;10951;59.656;9.666;2023-11-19T11:40:17;-5.00;99.90
21580;DHT22;10951;59.656;9.666;2023-11-19T11:42:50;-5.00;99.90
21580;DHT22;10951;59.656;9.666;2023-11-19T11:45:38;-5.00;99.90
21580;DHT22;10951;59.656;9.666;2023-11-19T11:48:09;-5.00;99.90
21580;DHT22;10951;59.656;9.666;2023-11-19T11:50:49;-5.00;99.90
21580;DHT22;10951;59.656;9.666;2023-11-19T11:53:17;-5.00;99.90
21580;DHT22;10951;59.656;9.666;2023-11-19T11:58:19;-5.10;99.90
21580;DHT22;10951;59.656;9.666;2023-11-19T12:00:48;-5.10;99.90
21580;DHT22;10951;59.656;9.666;2023-11-19T12:03:16;-5.10;99.90
21580;DHT22;10951;59.656;9.666;2023-11-19T12:05:46;-5.10;99.90
21580;DHT22;10951;59.656;9.666;2023-11-19T12:08:15;-5.10;99.90
21580;DHT22;10951;59.656;9.666;2023-11-19T12:10:56;-5.10;99.90
21580;DHT22;10951;59.656;9.666;2023-11-19T12:13:54;-5.10;99.90
21580;DHT22;10951;59.656;9.666;2023-11-19T12:16:23;-5.10;99.90
21580;DHT22;10951;59.656;9.666;2023-11-19T12:18:50;-5.00;99.90
21580;DHT22;10951;59.656;9.666;2023-11-19T12:21:29;-5.00;99.90
21580;DHT22;10951;59.656;9.666;2023-11-19T12:24:00;-5.10;99.90
21580;DHT22;10951;59.656;9.666;2023-11-19T12:26:34;-5.10;99.90
21580;DHT22;10951;59.656;9.666;2023-11-19T12:29:02;-5.10;99.90
21580;DHT22;10951;59.656;9.666;2023-11-19T12:31:34;-5.10;99.90
21580;DHT22;10951;59.656;9.666;2023-11-19T12:34:05;-5.10;99.90
21580;DHT22;10951;59.656;9.666;2023-11-19T12:36:34;-5.00;99.90
21580;DHT22;10951;59.656;9.666;2023-11-19T12:39:01;-4.90;99.90
21580;DHT22;10951;59.656;9.666;2023-11-19T12:41:28;-4.90;99.90
21580;DHT22;10951;59.656;9.666;2023-11-19T12:44:09;-4.90;99.90
21580;DHT22;10951;59.656;9.666;2023-11-19T12:46:37;-4.90;99.90
21580;DHT22;10951;59.656;9.666;2023-11-19T12:49:04;-5.00;99.90
21580;DHT22;10951;59.656;9.666;2023-11-19T12:51:32;-4.90;99.90
21580;DHT22;10951;59.656;9.666;2023-11-19T12:54:00;-4.90;99.90
21580;DHT22;10951;59.656;9.666;2023-11-19T12:56:27;-4.90;99.90
21580;DHT22;10951;59.656;9.666;2023-11-19T12:58:54;-5.00;99.90
21580;DHT22;10951;59.656;9.666;2023-11-19T13:01:21;-5.00;99.90
21580;DHT22;10951;59.656;9.666;2023-11-19T13:03:49;-5.00;99.90
21580;DHT22;10951;59.656;9.666;2023-11-19T13:06:18;-5.00;99.90
21580;DHT22;10951;59.656;9.666;2023-11-19T13:08:49;-4.90;99.90
21580;DHT22;10951;59.656;9.666;2023-11-19T13:11:35;-4.90;99.90
21580;DHT22;10951;59.656;9.666;2023-11-19T13:14:04;-5.00;99.90
21580;DHT22;10951;59.656;9.666;2023-11-19T13:16:32;-5.00;99.90
21580;DHT22;10951;59.656;9.666;2023-11-19T13:18:59;-5.00;99.90
21580;DHT22;10951;59.656;9.666;2023-11-19T13:21:27;-4.90;99.90
21580;DHT22;10951;59.656;9.666;2023-11-19T13:23:55;-5.00;99.90
21580;DHT22;10951;59.656;9.666;2023-11-19T13:26:22;-4.90;99.90
21580;DHT22;10951;59.656;9.666;2023-11-19T13:28:49;-4.90;99.90
21580;DHT22;10951;59.656;9.666;2023-11-19T13:31:16;-4.90;99.90
21580;DHT22;10951;59.656;9.666;2023-11-19T13:33:44;-4.90;99.90
21580;DHT22;10951;59.656;9.666;2023-11-19T13:36:11;-5.00;99.90
21580;DHT22;10951;59.656;9.666;2023-11-19T13:38:43;-4.90;99.90
21580;DHT22;10951;59.656;9.666;2023-11-19T13:41:14;-4.90;99.90
21580;DHT22;10951;59.656;9.666;2023-11-19T13:43:41;-4.90;99.90
21580;DHT22;10951;59.656;9.666;2023-11-19T13:46:08;-4.90;99.90
21580;DHT22;10951;59.656;9.666;2023-11-19T13:48:39;-4.80;99.90
21580;DHT22;10951;59.656;9.666;2023-11-19T13:51:06;-4.90;99.90
21580;DHT22;10951;59.656;9.666;2023-11-19T13:53:33;-4.80;99.90
21580;DHT22;10951;59.656;9.666;2023-11-19T13:56:03;-4.90;99.90
21580;DHT22;10951;59.656;9.666;2023-11-19T13:58:30;-4.80;99.90
21580;DHT22;10951;59.656;9.666;2023-11-19T14:00:57;-4.80;99.90
21580;DHT22;10951;59.656;9.666;2023-11-19T14:03:25;-4.80;99.90
21580;DHT22;10951;59.656;9.666;2023-11-19T14:05:53;-4.80;99.90
21580;DHT22;10951;59.656;9.666;2023-11-19T14:08:22;-4.80;99.90
21580;DHT22;10951;59.656;9.666;2023-11-19T14:10:52;-4.80;99.90
21580;DHT22;10951;59.656;9.666;2023-11-19T14:13:23;-4.70;99.90
21580;DHT22;10951;59.656;9.666;2023-11-19T14:15:50;-4.80;99.90
21580;DHT22;10951;59.656;9.666;2023-11-19T14:18:18;-4.80;99.90
21580;DHT22;10951;59.656;9.666;2023-11-19T14:20:45;-4.80;99.90
21580;DHT22;10951;59.656;9.666;2023-11-19T14:23:12;-4.70;99.90
21580;DHT22;10951;59.656;9.666;2023-11-19T14:25:39;-4.80;99.90
21580;DHT22;10951;59.656;9.666;2023-11-19T14:28:06;-4.70;99.90
21580;DHT22;10951;59.656;9.666;2023-11-19T14:30:34;-4.80;99.90
21580;DHT22;10951;59.656;9.666;2023-11-19T14:33:01;-4.70;99.90
21580;DHT22;10951;59.656;9.666;2023-11-19T14:35:30;-4.70;99.90
21580;DHT22;10951;59.656;9.666;2023-11-19T14:37:57;-4.70;99.90
21580;DHT22;10951;59.656;9.666;2023-11-19T14:40:24;-4.70;99.90
21580;DHT22;10951;59.656;9.666;2023-11-19T14:42:54;-4.70;99.90
21580;DHT22;10951;59.656;9.666;2023-11-19T14:45:21;-4.60;99.90
21580;DHT22;10951;59.656;9.666;2023-11-19T14:47:49;-4.60;99.90
21580;DHT22;10951;59.656;9.666;2023-11-19T14:50:16;-4.60;99.90
21580;DHT22;10951;59.656;9.666;2023-11-19T14:52:43;-4.60;99.90
21580;DHT22;10951;59.656;9.666;2023-11-19T14:55:10;-4.60;99.90
21580;DHT22;10951;59.656;9.666;2023-11-19T14:57:38;-4.60;99.90
21580;DHT22;10951;59.656;9.666;2023-11-19T15:00:06;-4.60;99.90
21580;DHT22;10951;59.656;9.666;2023-11-19T15:02:40;-4.60;99.90
21580;DHT22;10951;59.656;9.666;2023-11-19T15:05:08;-4.60;99.90
21580;DHT22;10951;59.656;9.666;2023-11-19T15:07:40;-4.60;99.90
21580;DHT22;10951;59.656;9.666;2023-11-19T15:10:07;-4.60;99.90
21580;DHT22;10951;59.656;9.666;2023-11-19T15:12:39;-4.60;99.90
21580;DHT22;10951;59.656;9.666;2023-11-19T15:15:09;-4.60;99.90
21580;DHT22;10951;59.656;9.666;2023-11-19T15:17:36;-4.50;99.90
21580;DHT22;10951;59.656;9.666;2023-11-19T15:20:04;-4.60;99.90
21580;DHT22;10951;59.656;9.666;2023-11-19T15:22:32;-4.60;99.90
21580;DHT22;10951;59.656;9.666;2023-11-19T15:24:59;-4.60;99.90
21580;DHT22;10951;59.656;9.666;2023-11-19T15:27:26;-4.60;99.90
21580;DHT22;10951;59.656;9.666;2023-11-19T15:29:53;-4.60;99.90
21580;DHT22;10951;59.656;9.666;2023-11-19T15:32:20;-4.60;99.90
21580;DHT22;10951;59.656;9.666;2023-11-19T15:34:47;-4.60;99.90
21580;DHT22;10951;59.656;9.666;2023-11-19T15:37:15;-4.60;99.90
21580;DHT22;10951;59.656;9.666;2023-11-19T15:39:42;-4.60;99.90
21580;DHT22;10951;59.656;9.666;2023-11-19T15:42:09;-4.60;99.90
21580;DHT22;10951;59.656;9.666;2023-11-19T15:44:37;-4.60;99.90
21580;DHT22;10951;59.656;9.666;2023-11-19T15:47:04;-4.60;99.90
21580;DHT22;10951;59.656;9.666;2023-11-19T15:49:31;-4.50;99.90
21580;DHT22;10951;59.656;9.666;2023-11-19T15:51:58;-4.50;99.90
21580;DHT22;10951;59.656;9.666;2023-11-19T15:54:26;-4.50;99.90